Time;durP1;ratioP1;P1;durP2;ratioP2;P2;SDS_P1;SDS_P2;PMS_P1;PMS_P2;Temp;Humidity;BMP_temperature;BMP_pressure;BME280_temperature;BME280_humidity;BME280_pressure;Samples;Min_cycle;Max_cycle;Signal;HPM_P1;HPM_P2
2023/04/28 00:02:08;;;;;;;8.65;6.15;;;;;;;10.68;68.87;100845.19;7788877;18;20784;-71
2023/04/28 00:04:35;;;;;;;6.70;6.00;;;;;;;10.55;69.08;100829.22;7788378;18;20769;-72
2023/04/28 00:07:02;;;;;;;7.60;6.57;;;;;;;10.33;69.17;100797.94;7747536;18;19994;-71
2023/04/28 00:09:28;;;;;;;7.68;5.63;;;;;;;10.58;70.08;100833.44;7788096;18;20072;-72
2023/04/28 00:11:54;;;;;;;9.20;6.32;;;;;;;10.66;69.88;100847.03;7791344;18;20002;-72
2023/04/28 00:14:21;;;;;;;5.75;5.35;;;;;;;10.67;70.43;100850.53;7787208;18;20650;-71
2023/04/28 00:16:47;;;;;;;6.40;5.90;;;;;;;10.66;70.89;100860.16;7790889;18;20140;-72
2023/04/28 00:19:14;;;;;;;6.82;6.32;;;;;;;10.65;72.47;100861.09;7787608;18;20002;-71
2023/04/28 00:21:40;;;;;;;5.90;5.50;;;;;;;9.82;72.87;100728.72;7788386;18;20067;-72
2023/04/28 00:24:07;;;;;;;6.30;5.80;;;;;;;10.51;73.81;100839.94;7787969;18;19998;-71
2023/04/28 00:26:33;;;;;;;7.15;6.45;;;;;;;9.50;74.63;100667.41;7786930;18;20469;-71
2023/04/28 00:29:00;;;;;;;8.18;6.15;;;;;;;10.56;75.83;100849.28;7785054;18;20045;-71
2023/04/28 00:31:26;;;;;;;7.18;6.57;;;;;;;10.54;78.46;100872.13;7785534;18;20010;-72
2023/04/28 00:33:52;;;;;;;7.35;6.07;;;;;;;10.44;80.42;100868.25;7786276;18;20005;-71
2023/04/28 00:36:19;;;;;;;6.18;5.68;;;;;;;10.47;81.82;100872.50;7786199;18;20151;-72
2023/04/28 00:38:47;;;;;;;7.03;6.35;;;;;;;10.47;82.81;100873.34;7785568;18;19994;-72
2023/04/28 00:41:14;;;;;;;6.95;6.28;;;;;;;9.62;84.66;100742.78;7785987;18;20419;-71
2023/04/28 00:43:45;;;;;;;6.45;5.95;;;;;;;10.22;86.18;100847.41;7743795;18;20060;-72
2023/04/28 00:46:20;;;;;;;8.00;7.30;;;;;;;10.45;86.40;100869.09;7785584;18;20363;-73
2023/04/28 00:48:47;;;;;;;6.53;5.90;;;;;;;10.09;84.84;100804.38;7743631;18;20053;-71
2023/04/28 00:51:14;;;;;;;5.80;5.40;;;;;;;9.91;84.11;100765.00;7786106;18;20005;-72
2023/04/28 00:53:42;;;;;;;11.68;5.80;;;;;;;10.50;82.65;100838.22;7784833;18;20435;-72
2023/04/28 00:56:09;;;;;;;6.13;5.57;;;;;;;10.60;81.52;100822.88;7785598;18;19994;-71
2023/04/28 00:58:36;;;;;;;6.53;5.90;;;;;;;10.32;79.96;100756.03;7783936;18;20028;-73
2023/04/28 01:01:06;;;;;;;6.38;5.63;;;;;;;10.59;79.99;100790.53;7786284;18;20002;-71
2023/04/28 01:03:36;;;;;;;6.55;6.05;;;;;;;10.68;78.92;100786.59;7785321;18;19998;-71
2023/04/28 01:06:07;;;;;;;5.55;5.25;;;;;;;10.65;78.15;100774.50;7785754;18;20060;-72
2023/04/28 01:08:36;;;;;;;6.90;6.22;;;;;;;10.19;78.01;100698.94;7782861;18;20005;-72
2023/04/28 01:11:02;;;;;;;6.68;6.15;;;;;;;10.66;78.19;100785.81;7787408;18;20226;-71
2023/04/28 01:13:28;;;;;;;11.23;5.78;;;;;;;10.09;78.73;100707.34;7784284;18;20002;-71
2023/04/28 01:15:55;;;;;;;6.22;5.72;;;;;;;10.41;79.17;100762.63;7786023;18;20466;-71
2023/04/28 01:18:24;;;;;;;5.93;5.53;;;;;;;10.60;79.24;100797.47;7785650;18;20203;-71
2023/04/28 01:20:50;;;;;;;6.53;5.60;;;;;;;10.58;79.57;100799.31;7744097;18;20015;-72
2023/04/28 01:23:17;;;;;;;5.70;5.30;;;;;;;10.18;80.23;100733.97;7784231;18;20244;-71
2023/04/28 01:25:43;;;;;;;6.55;6.05;;;;;;;10.55;81.00;100802.13;7785502;18;20018;-72
2023/04/28 01:28:10;;;;;;;7.05;6.45;;;;;;;10.49;81.66;100798.03;7785725;18;20005;-71
2023/04/28 01:30:37;;;;;;;7.35;6.40;;;;;;;10.54;82.35;100803.91;7783822;18;20308;-73
2023/04/28 01:33:03;;;;;;;5.95;5.35;;;;;;;10.51;82.46;100811.09;7788322;18;20175;-72
2023/04/28 01:35:30;;;;;;;6.57;5.90;;;;;;;10.21;83.02;100774.06;7747024;18;20349;-72
2023/04/28 01:37:56;;;;;;;6.78;6.13;;;;;;;10.49;83.21;100819.03;7786638;18;20500;-71
2023/04/28 01:40:23;;;;;;;6.07;5.57;;;;;;;10.48;82.97;100813.84;7787738;18;20010;-71
2023/04/28 01:42:50;;;;;;;6.72;6.00;;;;;;;10.47;83.50;100807.75;7788713;18;19994;-72
2023/04/28 01:45:16;;;;;;;6.63;6.13;;;;;;;10.45;84.52;100806.13;7789178;18;20736;-72
2023/04/28 01:47:42;;;;;;;6.35;5.75;;;;;;;10.44;84.14;100802.66;7789020;18;19998;-72
2023/04/28 01:50:09;;;;;;;8.15;6.15;;;;;;;10.45;83.94;100798.28;7834502;18;20053;-72
2023/04/28 01:52:36;;;;;;;13.95;6.18;;;;;;;10.40;84.43;100792.38;7836927;18;20438;-71
2023/04/28 01:55:02;;;;;;;6.65;6.05;;;;;;;10.48;84.38;100806.81;7793211;18;20024;-71
2023/04/28 01:57:29;;;;;;;6.45;5.95;;;;;;;10.45;84.19;100814.00;7789821;18;20000;-71
2023/04/28 01:59:55;;;;;;;6.07;5.57;;;;;;;10.43;84.85;100800.97;7787795;18;20461;-72
2023/04/28 02:02:21;;;;;;;14.07;5.85;;;;;;;10.30;84.60;100777.13;7786795;18;20048;-72
2023/04/28 02:04:48;;;;;;;5.68;5.38;;;;;;;10.22;85.33;100773.97;7787412;18;20006;-72
2023/04/28 02:07:14;;;;;;;5.60;5.22;;;;;;;10.37;86.27;100799.50;7789051;18;20304;-72
2023/04/28 02:09:41;;;;;;;6.03;5.65;;;;;;;10.35;87.22;100809.22;7784717;18;20320;-71
2023/04/28 02:12:07;;;;;;;8.48;6.30;;;;;;;10.31;88.76;100812.91;7787302;18;20183;-72
2023/04/28 02:14:34;;;;;;;6.25;5.75;;;;;;;10.28;89.84;100812.16;7786133;18;20439;-72
2023/04/28 02:17:02;;;;;;;6.22;5.75;;;;;;;9.06;90.60;100620.63;7788311;18;20451;-72
2023/04/28 02:19:28;;;;;;;7.00;6.40;;;;;;;10.16;91.96;100792.63;7786091;18;19994;-71
2023/04/28 02:21:54;;;;;;;7.63;6.75;;;;;;;10.24;92.69;100798.34;7786885;18;20038;-72
2023/04/28 02:24:21;;;;;;;11.27;6.10;;;;;;;9.88;93.68;100744.19;7786967;18;20002;-72
2023/04/28 02:26:47;;;;;;;6.97;6.47;;;;;;;10.15;94.41;100790.97;7787748;18;20017;-71
2023/04/28 02:29:14;;;;;;;6.65;5.93;;;;;;;9.47;94.74;100678.88;7786423;18;20339;-72
2023/04/28 02:31:40;;;;;;;8.27;7.05;;;;;;;9.92;95.87;100743.13;7787898;18;20006;-72
2023/04/28 02:34:07;;;;;;;6.20;5.80;;;;;;;10.16;96.32;100772.53;7787412;18;19990;-72
2023/04/28 02:36:33;;;;;;;6.53;5.93;;;;;;;10.11;96.24;100763.19;7746513;18;19998;-72
2023/04/28 02:39:00;;;;;;;6.13;5.72;;;;;;;10.09;96.88;100759.78;7788092;18;20388;-71
2023/04/28 02:41:26;;;;;;;6.55;6.05;;;;;;;9.95;98.34;100742.09;7786853;18;20336;-71
2023/04/28 02:43:53;;;;;;;6.68;6.18;;;;;;;9.97;99.44;100746.34;7787247;18;20014;-71
2023/04/28 02:46:20;;;;;;;11.52;6.25;;;;;;;9.95;100.00;100739.50;7788154;18;20454;-71
2023/04/28 02:48:46;;;;;;;7.38;6.78;;;;;;;9.93;100.00;100749.19;7787914;18;20327;-71
2023/04/28 02:51:13;;;;;;;6.68;6.00;;;;;;;9.93;100.00;100743.97;7789920;18;19998;-71
2023/04/28 02:53:39;;;;;;;6.35;5.90;;;;;;;9.93;100.00;100739.56;7787793;18;20357;-72
2023/04/28 02:56:06;;;;;;;5.70;5.38;;;;;;;9.93;100.00;100726.44;7799407;18;20423;-72
2023/04/28 02:58:32;;;;;;;5.80;5.38;;;;;;;9.93;100.00;100720.38;7791478;18;20017;-71
2023/04/28 03:00:59;;;;;;;8.98;5.28;;;;;;;9.75;100.00;100665.28;7787926;18;20486;-71
2023/04/28 03:03:25;;;;;;;6.30;5.90;;;;;;;9.91;100.00;100688.97;7787041;18;20018;-71
2023/04/28 03:05:52;;;;;;;10.15;6.72;;;;;;;9.92;100.00;100682.81;7788020;18;20477;-71
2023/04/28 03:08:19;;;;;;;6.85;6.35;;;;;;;9.75;100.00;100653.97;7744999;18;20014;-71
2023/04/28 03:10:46;;;;;;;8.82;6.22;;;;;;;9.77;100.00;100673.94;7785102;18;20240;-72
2023/04/28 03:13:12;;;;;;;7.50;6.38;;;;;;;9.42;100.00;100611.91;7786697;18;19998;-72
2023/04/28 03:15:39;;;;;;;6.28;5.88;;;;;;;9.97;100.00;100680.81;7746706;18;20002;-71
2023/04/28 03:18:06;;;;;;;5.82;5.43;;;;;;;9.48;100.00;100598.53;7787131;18;20419;-72
2023/04/28 03:20:32;;;;;;;8.30;6.05;;;;;;;9.98;100.00;100685.13;7787720;18;20332;-72
2023/04/28 03:22:58;;;;;;;8.07;6.38;;;;;;;9.89;100.00;100680.34;7788754;18;20048;-72
2023/04/28 03:25:25;;;;;;;5.57;5.18;;;;;;;9.28;100.00;100575.94;7789874;18;20021;-69
2023/04/28 03:27:51;;;;;;;6.63;6.13;;;;;;;9.97;100.00;100693.91;7790354;18;20138;-72
2023/04/28 03:30:18;;;;;;;6.78;5.80;;;;;;;9.99;100.00;100673.72;7788203;18;20264;-71
2023/04/28 03:32:45;;;;;;;6.53;6.03;;;;;;;9.97;100.00;100662.44;7746020;18;20427;-72
2023/04/28 03:35:11;;;;;;;6.07;5.65;;;;;;;9.98;100.00;100653.69;7786803;18;20078;-71
2023/04/28 03:37:38;;;;;;;7.40;6.70;;;;;;;9.36;100.00;100564.16;7786809;18;20058;-71
2023/04/28 03:40:05;;;;;;;10.18;6.60;;;;;;;9.72;100.00;100620.03;7786080;18;20347;-72
2023/04/28 03:42:31;;;;;;;5.65;5.18;;;;;;;9.55;100.00;100592.06;7788802;18;20005;-69
2023/04/28 03:44:58;;;;;;;8.40;5.95;;;;;;;9.65;100.00;100627.38;7786568;18;19993;-72
2023/04/28 03:47:24;;;;;;;12.98;5.70;;;;;;;9.45;100.00;100594.28;7787977;18;20254;-71
2023/04/28 03:49:51;;;;;;;6.65;6.00;;;;;;;9.19;100.00;100551.03;7787287;18;20001;-74
2023/04/28 03:52:17;;;;;;;9.10;6.13;;;;;;;9.56;100.00;100609.47;7787703;18;20046;-70
2023/04/28 03:54:44;;;;;;;6.95;6.38;;;;;;;9.35;100.00;100569.47;7787217;18;20002;-72
2023/04/28 03:57:11;;;;;;;7.13;6.63;;;;;;;9.28;100.00;100568.06;7788562;18;20060;-70
2023/04/28 03:59:37;;;;;;;8.82;6.32;;;;;;;9.04;100.00;100550.03;7786110;18;20355;-72
2023/04/28 04:02:04;;;;;;;14.68;6.22;;;;;;;9.45;100.00;100598.69;7787377;18;20023;-70
2023/04/28 04:04:30;;;;;;;6.95;6.18;;;;;;;9.36;100.00;100584.25;7746697;18;19998;-70
2023/04/28 04:06:58;;;;;;;6.05;5.55;;;;;;;8.97;100.00;100491.88;7787909;18;20013;-70
2023/04/28 04:09:25;;;;;;;5.80;5.30;;;;;;;9.41;100.00;100563.09;7787545;18;20288;-71
2023/04/28 04:11:51;;;;;;;7.70;5.72;;;;;;;9.44;100.00;100574.28;7785290;18;20331;-71
2023/04/28 04:14:18;;;;;;;7.93;6.45;;;;;;;9.41;100.00;100563.09;7786495;18;20002;-71
2023/04/28 04:16:46;;;;;;;5.80;5.40;;;;;;;9.47;100.00;100576.72;7789809;18;19998;-70
2023/04/28 04:19:13;;;;;;;6.43;5.97;;;;;;;9.10;100.00;100512.22;7786845;18;19994;-70
2023/04/28 04:21:39;;;;;;;6.70;6.10;;;;;;;8.84;100.00;100453.28;7745202;18;20550;-70
2023/04/28 04:24:06;;;;;;;6.32;5.85;;;;;;;9.33;100.00;100532.03;7786418;18;19994;-70
2023/04/28 04:26:33;;;;;;;7.35;6.20;;;;;;;9.49;100.00;100582.75;7787460;18;20005;-69
2023/04/28 04:29:00;;;;;;;13.73;5.88;;;;;;;8.88;100.00;100510.66;7786142;18;20339;-69
2023/04/28 04:31:26;;;;;;;5.88;5.47;;;;;;;7.97;100.00;100334.47;7787414;18;19994;-70
2023/04/28 04:33:53;;;;;;;10.27;5.38;;;;;;;9.23;100.00;100533.44;7787168;18;20060;-73
2023/04/28 04:36:19;;;;;;;6.72;6.13;;;;;;;9.23;100.00;100528.19;7786652;18;20002;-71
2023/04/28 04:38:46;;;;;;;6.30;5.70;;;;;;;9.32;100.00;100533.81;7785608;18;20002;-71
2023/04/28 04:41:13;;;;;;;8.23;6.70;;;;;;;9.64;100.00;100583.75;7787798;18;20086;-73
2023/04/28 04:43:39;;;;;;;7.55;6.85;;;;;;;9.66;100.00;100584.53;7785598;18;20422;-71
2023/04/28 04:46:06;;;;;;;6.65;6.15;;;;;;;9.66;100.00;100581.91;7788039;18;20284;-71
2023/04/28 04:48:32;;;;;;;6.80;6.07;;;;;;;9.69;100.00;100578.28;7787004;18;19998;-71
2023/04/28 04:50:59;;;;;;;7.03;6.32;;;;;;;9.71;100.00;100587.75;7786191;18;20369;-71
2023/04/28 04:53:25;;;;;;;6.05;5.60;;;;;;;9.76;100.00;100587.50;7786504;18;20463;-70
2023/04/28 04:55:52;;;;;;;7.90;7.25;;;;;;;9.14;100.00;100471.88;7787030;18;20002;-70
2023/04/28 04:58:18;;;;;;;6.35;5.85;;;;;;;9.86;100.00;100590.50;7784268;18;19990;-69
2023/04/28 05:00:45;;;;;;;7.90;7.20;;;;;;;9.89;100.00;100590.38;7786135;18;20006;-71
2023/04/28 05:03:11;;;;;;;7.15;6.55;;;;;;;9.91;100.00;100591.16;7785829;18;20537;-71
2023/04/28 05:05:38;;;;;;;10.25;6.93;;;;;;;9.93;100.00;100587.50;7787920;18;20069;-72
2023/04/28 05:08:05;;;;;;;7.90;7.20;;;;;;;9.93;100.00;100586.66;7747819;18;20408;-71
2023/04/28 05:10:32;;;;;;;7.47;6.53;;;;;;;9.80;100.00;100560.22;7789080;18;20014;-70
2023/04/28 05:12:58;;;;;;;6.57;6.18;;;;;;;9.87;100.00;100587.81;7784991;18;20004;-70
2023/04/28 05:15:25;;;;;;;10.90;6.15;;;;;;;9.61;100.00;100544.59;7788114;18;20006;-71
2023/04/28 05:17:51;;;;;;;6.90;6.30;;;;;;;9.86;100.00;100585.28;7789073;18;19998;-70
2023/04/28 05:20:17;;;;;;;7.00;6.40;;;;;;;9.86;100.00;100591.38;7789120;18;20012;-72
2023/04/28 05:22:44;;;;;;;7.40;6.65;;;;;;;9.82;100.00;100583.75;7789451;18;20248;-73
2023/04/28 05:25:10;;;;;;;6.20;5.70;;;;;;;9.88;100.00;100589.53;7788966;18;20063;-73
2023/04/28 05:27:38;;;;;;;7.88;7.10;;;;;;;9.91;100.00;100593.75;7789230;18;20006;-71
2023/04/28 05:30:06;;;;;;;6.40;5.90;;;;;;;9.89;100.00;100587.75;7786459;18;20020;-70
2023/04/28 05:32:34;;;;;;;6.95;6.30;;;;;;;9.87;100.00;100587.00;7788193;18;20325;-69
2023/04/28 05:35:02;;;;;;;6.55;5.78;;;;;;;9.94;100.00;100590.97;7788176;18;20014;-72
2023/04/28 05:37:29;;;;;;;6.35;5.85;;;;;;;9.77;100.00;100556.00;7788427;18;19994;-70
2023/04/28 05:39:55;;;;;;;7.47;6.82;;;;;;;9.49;100.00;100491.06;7788030;18;20072;-71
2023/04/28 05:42:22;;;;;;;10.18;6.32;;;;;;;9.85;100.00;100565.25;7787873;18;20008;-71
2023/04/28 05:44:48;;;;;;;6.57;6.10;;;;;;;10.05;100.00;100588.66;7788429;18;20201;-71
2023/04/28 05:47:15;;;;;;;6.65;6.05;;;;;;;9.71;100.00;100518.78;7789270;18;19998;-70
2023/04/28 05:49:41;;;;;;;6.95;6.28;;;;;;;9.74;100.00;100515.97;7787980;18;20068;-70
2023/04/28 05:52:07;;;;;;;7.40;6.40;;;;;;;10.22;100.00;100577.28;7788248;18;20002;-70
2023/04/28 05:54:34;;;;;;;7.93;7.03;;;;;;;9.72;100.00;100492.50;7788417;18;20006;-69
2023/04/28 05:57:01;;;;;;;9.00;6.38;;;;;;;10.34;100.00;100575.81;7788682;18;20009;-70
2023/04/28 05:59:29;;;;;;;9.93;6.28;;;;;;;10.44;100.00;100581.41;7788017;18;20137;-71
2023/04/28 06:01:56;;;;;;;6.63;6.13;;;;;;;9.71;100.00;100461.13;7790316;18;20025;-70
2023/04/28 06:04:23;;;;;;;15.45;6.13;;;;;;;10.54;100.00;100583.50;7787852;18;20001;-70
2023/04/28 06:06:51;;;;;;;7.10;6.18;;;;;;;10.62;100.00;100580.41;7791735;18;20056;-71
2023/04/28 06:09:17;;;;;;;13.55;6.82;;;;;;;9.90;100.00;100450.50;7790350;18;20005;-71
2023/04/28 06:11:44;;;;;;;6.43;5.80;;;;;;;10.70;100.00;100567.72;7790937;18;19998;-70
2023/04/28 06:14:11;;;;;;;6.93;6.32;;;;;;;10.41;100.00;100511.59;7788686;18;20461;-71
2023/04/28 06:16:37;;;;;;;9.05;6.70;;;;;;;10.69;100.00;100570.47;7790861;18;20030;-70
2023/04/28 06:19:03;;;;;;;11.10;6.20;;;;;;;10.72;100.00;100575.53;7748167;18;20000;-71
2023/04/28 06:21:31;;;;;;;6.20;5.70;;;;;;;10.29;100.00;100533.22;7749161;18;20022;-69
2023/04/28 06:23:57;;;;;;;6.53;5.95;;;;;;;10.69;100.00;100586.22;7790672;18;19994;-72
2023/04/28 06:26:24;;;;;;;8.45;6.70;;;;;;;10.67;100.00;100582.81;7790553;18;19998;-71
2023/04/28 06:28:51;;;;;;;6.78;6.25;;;;;;;10.74;100.00;100590.28;7748492;18;19995;-70
2023/04/28 06:31:17;;;;;;;7.90;6.30;;;;;;;10.75;100.00;100580.63;7790154;18;20004;-71
2023/04/28 06:33:43;;;;;;;7.13;6.43;;;;;;;10.87;100.00;100590.44;7789865;18;20031;-71
2023/04/28 06:36:15;;;;;;;8.18;6.07;;;;;;;10.97;100.00;100585.53;7791141;18;20009;-70
2023/04/28 06:38:42;;;;;;;6.67;6.17;;;;;;;11.08;100.00;100592.81;7791574;18;20029;-71
2023/04/28 06:41:10;;;;;;;8.10;6.03;;;;;;;11.32;100.00;100587.94;7790231;18;20024;-71
2023/04/28 06:43:37;;;;;;;9.20;5.57;;;;;;;11.61;100.00;100578.38;7788945;18;20060;-71
2023/04/28 06:46:03;;;;;;;7.35;6.75;;;;;;;10.76;100.00;100396.81;7791087;18;20567;-72
2023/04/28 06:48:30;;;;;;;7.35;6.35;;;;;;;11.67;100.00;100495.69;7790751;18;20002;-71
2023/04/28 06:50:56;;;;;;;7.20;6.28;;;;;;;12.27;98.74;100561.31;7790381;18;20065;-70
2023/04/28 06:53:22;;;;;;;6.35;5.85;;;;;;;11.91;97.76;100546.00;7789494;18;20004;-71
2023/04/28 06:55:49;;;;;;;12.82;7.28;;;;;;;11.94;98.93;100561.56;7791391;18;20025;-70
2023/04/28 06:58:15;;;;;;;9.60;6.22;;;;;;;11.72;98.09;100546.19;7792085;18;20010;-71
2023/04/28 07:00:42;;;;;;;7.20;6.50;;;;;;;11.32;99.95;100522.25;7791361;18;20052;-71
2023/04/28 07:03:08;;;;;;;6.65;6.15;;;;;;;11.56;100.00;100562.03;7790300;18;20009;-71
2023/04/28 07:05:35;;;;;;;6.68;6.07;;;;;;;11.63;100.00;100580.94;7791111;18;20072;-70
2023/04/28 07:08:02;;;;;;;6.28;5.78;;;;;;;11.72;100.00;100583.84;7791156;18;20029;-73
2023/04/28 07:10:28;;;;;;;8.30;6.38;;;;;;;11.77;100.00;100575.72;7791293;18;20002;-74
2023/04/28 07:12:55;;;;;;;8.77;7.15;;;;;;;11.73;100.00;100582.09;7790139;18;20014;-73
2023/04/28 07:15:22;;;;;;;6.00;5.60;;;;;;;11.77;100.00;100615.97;7788893;18;20422;-72
2023/04/28 07:17:49;;;;;;;6.85;6.30;;;;;;;11.76;100.00;100590.63;7750889;18;20031;-72
2023/04/28 07:20:16;;;;;;;7.25;6.53;;;;;;;11.20;100.00;100513.31;7748463;18;20006;-71
2023/04/28 07:22:42;;;;;;;7.88;6.32;;;;;;;11.48;100.00;100572.97;7792580;18;20083;-74
2023/04/28 07:25:09;;;;;;;11.60;6.53;;;;;;;11.06;100.00;100536.88;7792402;18;20083;-72
2023/04/28 07:27:36;;;;;;;6.50;6.00;;;;;;;11.15;100.00;100579.25;7791917;18;19994;-72
2023/04/28 07:30:03;;;;;;;7.05;6.45;;;;;;;10.72;100.00;100523.91;7747776;18;20005;-72
2023/04/28 07:32:44;;;;;;;12.65;6.35;;;;;;;11.15;100.00;100575.78;7791262;18;20300;-72
2023/04/28 07:35:10;;;;;;;7.20;6.53;;;;;;;11.27;100.00;100567.19;7791464;18;20547;-73
2023/04/28 07:37:37;;;;;;;6.18;5.70;;;;;;;11.67;100.00;100611.38;7791920;18;20438;-72
2023/04/28 07:40:05;;;;;;;8.65;7.00;;;;;;;11.69;100.00;100601.59;7789391;18;20058;-73
2023/04/28 07:42:31;;;;;;;7.72;6.20;;;;;;;11.65;100.00;100571.19;7790550;18;20013;-73
2023/04/28 07:44:58;;;;;;;7.20;6.55;;;;;;;12.04;100.00;100611.84;7789171;18;20005;-72
2023/04/28 07:47:28;;;;;;;6.70;5.85;;;;;;;11.70;100.00;100530.50;7791411;18;19998;-71
2023/04/28 07:49:54;;;;;;;10.23;6.60;;;;;;;12.15;100.00;100598.91;7747087;18;20001;-71
2023/04/28 07:52:21;;;;;;;6.75;6.25;;;;;;;12.06;100.00;100591.56;7790670;18;20006;-71
2023/04/28 07:54:47;;;;;;;7.05;6.43;;;;;;;11.66;100.00;100525.53;7788702;18;20060;-72
2023/04/28 07:57:14;;;;;;;8.85;6.35;;;;;;;12.13;100.00;100592.88;7789307;18;20014;-71
2023/04/28 07:59:40;;;;;;;8.25;6.18;;;;;;;12.15;100.00;100577.84;7749199;18;19998;-71
2023/04/28 08:02:06;;;;;;;7.43;6.50;;;;;;;12.05;100.00;100568.84;7789409;18;20082;-71
2023/04/28 08:04:33;;;;;;;6.70;6.15;;;;;;;12.05;100.00;100579.34;7789248;18;19998;-70
2023/04/28 08:07:00;;;;;;;7.38;6.78;;;;;;;11.89;100.00;100529.47;7752011;18;20047;-73
2023/04/28 08:09:27;;;;;;;6.43;5.93;;;;;;;12.25;100.00;100599.16;7749476;18;20014;-72
2023/04/28 08:11:53;;;;;;;7.28;6.65;;;;;;;12.27;100.00;100603.41;7794392;18;20064;-72
2023/04/28 08:14:20;;;;;;;8.80;7.90;;;;;;;12.29;100.00;100604.16;7788831;18;20016;-70
2023/04/28 08:16:47;;;;;;;6.82;6.25;;;;;;;11.95;100.00;100547.50;7794179;18;19998;-71
2023/04/28 08:19:14;;;;;;;6.53;6.05;;;;;;;11.20;100.00;100399.53;7794804;18;20024;-70
2023/04/28 08:21:40;;;;;;;6.20;5.80;;;;;;;12.59;100.00;100600.59;7795837;18;20050;-71
2023/04/28 08:24:09;;;;;;;6.70;6.20;;;;;;;12.89;100.00;100605.72;7794356;18;20588;-71
2023/04/28 08:26:37;;;;;;;6.90;6.30;;;;;;;13.05;100.00;100607.34;7795887;18;20010;-72
2023/04/28 08:29:04;;;;;;;7.35;6.65;;;;;;;13.40;100.00;100612.19;7792918;18;19994;-70
2023/04/28 08:31:30;;;;;;;11.50;6.72;;;;;;;13.61;100.00;100594.09;7793606;18;20719;-70
2023/04/28 08:33:57;;;;;;;8.02;7.22;;;;;;;13.87;100.00;100595.84;7793814;18;20004;-70
2023/04/28 08:36:25;;;;;;;8.18;6.20;;;;;;;13.49;97.80;100535.13;7791717;18;20018;-70
2023/04/28 08:38:51;;;;;;;7.82;7.15;;;;;;;14.08;97.40;100592.69;7790103;18;20009;-71
2023/04/28 08:41:21;;;;;;;7.82;7.13;;;;;;;14.05;95.96;100588.47;7789413;18;20060;-70
2023/04/28 08:43:48;;;;;;;7.43;6.68;;;;;;;14.07;95.05;100581.31;7790147;18;19998;-72
2023/04/28 08:46:17;;;;;;;7.07;6.47;;;;;;;13.54;93.77;100501.38;7790548;18;20013;-70
2023/04/28 08:48:47;;;;;;;8.25;6.13;;;;;;;14.23;92.54;100581.09;7789388;18;19998;-73
2023/04/28 08:51:22;;;;;;;7.00;6.40;;;;;;;14.40;92.54;100586.97;7790689;18;20387;-71
2023/04/28 08:53:52;;;;;;;7.18;6.57;;;;;;;14.03;91.34;100568.41;7790010;18;20010;-73
2023/04/28 08:56:26;;;;;;;7.95;7.13;;;;;;;13.42;92.48;100479.34;7789940;18;20010;-70
2023/04/28 08:58:53;;;;;;;8.18;6.05;;;;;;;13.91;93.64;100575.34;7782057;18;20002;-71
2023/04/28 09:01:20;;;;;;;7.70;6.65;;;;;;;13.88;94.40;100579.06;7788993;18;20078;-73
2023/04/28 09:03:47;;;;;;;7.25;6.65;;;;;;;13.91;96.61;100586.78;7788629;18;20008;-74
2023/04/28 09:06:14;;;;;;;8.10;7.35;;;;;;;13.96;98.84;100600.47;7788336;18;20068;-73
2023/04/28 09:08:41;;;;;;;11.55;7.13;;;;;;;13.86;99.26;100586.22;7788113;18;20004;-72
2023/04/28 09:11:09;;;;;;;8.73;7.90;;;;;;;14.14;99.36;100614.22;7788510;18;20431;-73
2023/04/28 09:13:36;;;;;;;7.90;7.20;;;;;;;13.52;100.00;100501.47;7787380;18;19998;-72
2023/04/28 09:16:03;;;;;;;8.35;7.63;;;;;;;14.52;100.00;100626.56;7786144;18;19986;-72
2023/04/28 09:18:32;;;;;;;8.30;7.53;;;;;;;14.96;100.00;100629.69;7786713;18;20001;-71
2023/04/28 09:21:06;;;;;;;7.72;7.13;;;;;;;15.02;100.00;100591.41;7787846;18;20045;-72
2023/04/28 09:23:33;;;;;;;8.50;7.68;;;;;;;15.31;97.90;100615.69;7787583;18;20064;-74
2023/04/28 09:26:05;;;;;;;8.07;7.43;;;;;;;15.05;96.50;100592.00;7788337;18;19994;-72
2023/04/28 09:28:33;;;;;;;9.50;8.50;;;;;;;14.79;98.43;100599.19;7786299;18;20049;-73
2023/04/28 09:31:00;;;;;;;9.95;8.20;;;;;;;14.36;100.00;100607.47;7747765;18;19998;-73
2023/04/28 09:33:26;;;;;;;8.25;7.45;;;;;;;14.14;100.00;100622.13;7789064;18;20062;-73
2023/04/28 09:35:53;;;;;;;8.05;7.35;;;;;;;13.66;100.00;100534.84;7789460;18;20024;-73
2023/04/28 09:38:21;;;;;;;8.95;8.07;;;;;;;14.34;100.00;100636.59;7789121;18;20514;-71
2023/04/28 09:40:58;;;;;;;10.35;8.30;;;;;;;14.35;100.00;100634.81;7788156;18;20006;-69
2023/04/28 09:43:29;;;;;;;8.15;7.32;;;;;;;14.31;100.00;100634.19;7788848;18;20046;-72
2023/04/28 09:45:58;;;;;;;17.55;7.38;;;;;;;14.25;100.00;100631.97;7789670;18;19998;-71
2023/04/28 09:48:31;;;;;;;8.05;7.28;;;;;;;14.04;100.00;100628.16;7788779;18;20002;-72
2023/04/28 09:51:00;;;;;;;9.55;7.90;;;;;;;14.06;100.00;100632.38;7786306;18;20004;-71
2023/04/28 09:53:28;;;;;;;8.45;7.68;;;;;;;14.11;100.00;100632.06;7788548;18;20524;-70
2023/04/28 09:55:57;;;;;;;7.95;7.30;;;;;;;14.04;100.00;100623.72;7791347;18;20437;-71
2023/04/28 09:58:24;;;;;;;9.85;8.98;;;;;;;14.01;100.00;100628.34;7789258;18;20495;-71
2023/04/28 10:00:56;;;;;;;10.15;8.05;;;;;;;13.88;100.00;100617.78;7790396;18;20057;-71
2023/04/28 10:03:25;;;;;;;15.00;8.05;;;;;;;14.14;100.00;100623.94;7747290;18;20037;-72
2023/04/28 10:05:57;;;;;;;8.50;7.70;;;;;;;13.14;100.00;100431.09;7790664;18;19994;-72
2023/04/28 10:08:24;;;;;;;8.38;7.65;;;;;;;14.47;100.00;100622.56;7788515;18;20011;-72
2023/04/28 10:10:55;;;;;;;12.05;8.23;;;;;;;14.54;100.00;100613.25;7790119;18;20855;-72
2023/04/28 10:13:25;;;;;;;9.43;8.40;;;;;;;14.27;100.00;100568.50;7747348;18;20630;-72
2023/04/28 10:15:54;;;;;;;8.73;7.93;;;;;;;14.51;100.00;100613.47;7791014;18;20085;-72
2023/04/28 10:18:23;;;;;;;8.88;8.07;;;;;;;14.41;100.00;100617.69;7786977;18;20021;-70
2023/04/28 10:20:56;;;;;;;8.65;7.72;;;;;;;14.49;100.00;100608.31;7792209;18;20001;-71
2023/04/28 10:23:51;;;;;;;9.95;8.82;;;;;;;14.40;100.00;100610.75;7789337;18;20002;-71
2023/04/28 10:26:19;;;;;;;8.50;7.80;;;;;;;14.04;100.00;100549.00;7789160;18;20005;-71
2023/04/28 10:28:47;;;;;;;8.60;7.80;;;;;;;13.99;100.00;100504.44;7789259;18;20047;-71
2023/04/28 10:31:22;;;;;;;9.25;8.20;;;;;;;14.75;100.00;100616.19;7790686;18;19998;-70
2023/04/28 10:33:48;;;;;;;25.02;23.13;;;;;;;14.94;100.00;100613.09;7611699;18;20602;-72
2023/04/28 10:36:51;;;;;;;9.98;8.43;;;;;;;14.99;100.00;100613.59;7790951;18;20499;-71
2023/04/28 10:39:18;;;;;;;8.70;7.88;;;;;;;15.16;100.00;100605.31;7789684;18;20006;-71
2023/04/28 10:41:46;;;;;;;9.68;8.52;;;;;;;15.24;100.00;100603.91;7746746;18;20556;-71
2023/04/28 10:44:31;;;;;;;8.23;7.53;;;;;;;15.15;100.00;100600.97;7785533;18;20086;-72
2023/04/28 10:47:06;;;;;;;9.55;8.43;;;;;;;15.16;100.00;100607.94;7747639;18;19998;-71
2023/04/28 10:49:56;;;;;;;10.13;7.72;;;;;;;15.20;100.00;100602.44;7787879;18;20761;-71
2023/04/28 10:52:31;;;;;;;8.25;7.57;;;;;;;15.09;100.00;100596.13;7788103;18;19998;-70
2023/04/28 10:55:35;;;;;;;7.28;6.30;;;;;;;15.30;100.00;100593.72;7788841;18;20021;-70
2023/04/28 10:58:14;;;;;;;8.43;7.72;;;;;;;15.63;100.00;100601.91;7788192;18;20450;-71
2023/04/28 11:00:42;;;;;;;7.78;7.18;;;;;;;15.52;100.00;100541.88;7789913;18;20066;-71
2023/04/28 11:03:29;;;;;;;8.35;7.68;;;;;;;16.32;100.00;100604.63;7787283;18;20379;-72
2023/04/28 11:06:25;;;;;;;7.82;7.18;;;;;;;16.97;100.00;100602.19;7790360;18;20001;-71
2023/04/28 11:08:54;;;;;;;10.93;7.60;;;;;;;17.46;100.00;100596.38;7789986;18;20009;-72
2023/04/28 11:11:25;;;;;;;8.43;7.70;;;;;;;16.98;100.00;100562.31;7789065;18;19998;-72
2023/04/28 11:13:54;;;;;;;7.85;7.25;;;;;;;17.00;100.00;100507.34;7788468;18;19994;-72
2023/04/28 11:16:23;;;;;;;9.40;6.97;;;;;;;17.39;100.00;100523.56;7746909;18;20455;-71
2023/04/28 11:19:03;;;;;;;8.27;7.47;;;;;;;16.67;100.00;100442.84;7786417;18;20002;-71
2023/04/28 11:21:31;;;;;;;8.95;7.15;;;;;;;16.68;100.00;100524.03;7788356;18;20008;-73
2023/04/28 11:23:58;;;;;;;7.63;6.93;;;;;;;16.30;100.00;100538.50;7791244;18;19990;-69
2023/04/28 11:26:26;;;;;;;7.32;6.72;;;;;;;16.31;100.00;100555.25;7789134;18;20029;-73